Valley Ford, CA (94972)

7:06 PM PDT on July 24, 2016 (GMT -0700)
Freestone South Hills | | Change Station

Elev 554 ft 38.36 °N, 122.90 °W | Updated 32 seconds ago

Clear
Clear
62.1 °F
Feels Like 62.1 °F
N
0.0
Wind Variable Wind from SE
Gusts 0.0 mph

Today
High -- | Low -- °F
--% Chance of Precip.
Yesterday
High -- | Low -- °F
Precip. -- in
Pressure 29.80 in
Visibility 10.0 miles
Clouds Clear
Dew Point 49 °F
Humidity 63%
Rainfall 0.00 in
Snow Depth Not available.
6:07 AM 8:28 PM
Waning Gibbous, 71% visible
METAR KSTS 250153Z 16007KT 10SM CLR 23/11 A2982 RMK AO2 SLP091 T02330111
Pressure 29.80 in
Visibility 10.0 miles
Clouds Clear
Dew Point 49 °F
Humidity 63%
Rainfall 0.00 in
Snow Depth Not available.
6:07 AM 8:28 PM
Waning Gibbous, 71% visible
METAR KSTS 250153Z 16007KT 10SM CLR 23/11 A2982 RMK AO2 SLP091 T02330111

10-Day Weather Forecast

Almanac

Astronomy

Jul. 24, 2016 Rise Set
Actual Time
Civil Twilight
Nautical Twilight
Astronomical Twilight
Moon
Length of Visible Light
Length of Day
Tomorrow will be .
, % of the Moon is Illuminated

Today's Extremes

State Highs State Lows

Community

WunderPhotos

Upload Photos

1,927,233 photos uploaded!

WunderBlog® & News

Nearby

Air Quality

  Air Quality AQ Index Pollutant
Not available.

Snow Depth

Station Depth Elevation

Earthquake Activity

City Distance Mag. Time & Date
Minimum magnitude displayed is 2.5.

Coastal Water Temperatures

Place Temperature

Stations

Nearby Weather Stations

Station Location Temp. Windchill Dew Point Humidity Wind Precip. Elev Updated Type
                   

Watches & Warnings

There are currently no watches in effect.